sensor_id;sensor_type;location;lat;lon;timestamp;temperature;humidity
59469;DHT22;45277;52.768;18.262;2022-10-17T00:00:52;9.80;99.90
59469;DHT22;45277;52.768;18.262;2022-10-17T00:05:45;9.90;99.90
59469;DHT22;45277;52.768;18.262;2022-10-17T00:10:24;9.90;99.90
59469;DHT22;45277;52.768;18.262;2022-10-17T00:15:03;10.40;99.90
59469;DHT22;45277;52.768;18.262;2022-10-17T00:19:48;10.70;99.90
59469;DHT22;45277;52.768;18.262;2022-10-17T00:24:28;11.30;99.90
59469;DHT22;45277;52.768;18.262;2022-10-17T00:29:16;11.70;99.90
59469;DHT22;45277;52.768;18.262;2022-10-17T00:38:42;10.90;99.90
59469;DHT22;45277;52.768;18.262;2022-10-17T00:43:21;10.40;99.90
59469;DHT22;45277;52.768;18.262;2022-10-17T00:48:03;10.30;99.90
59469;DHT22;45277;52.768;18.262;2022-10-17T00:52:49;10.30;99.90
59469;DHT22;45277;52.768;18.262;2022-10-17T01:03:09;10.40;99.90
59469;DHT22;45277;52.768;18.262;2022-10-17T01:07:54;10.40;99.90
59469;DHT22;45277;52.768;18.262;2022-10-17T01:17:21;10.60;99.90
59469;DHT22;45277;52.768;18.262;2022-10-17T01:26:58;10.80;99.90
59469;DHT22;45277;52.768;18.262;2022-10-17T01:31:46;11.00;99.90
59469;DHT22;45277;52.768;18.262;2022-10-17T01:51:17;11.20;99.90
59469;DHT22;45277;52.768;18.262;2022-10-17T02:01:28;10.90;99.90
59469;DHT22;45277;52.768;18.262;2022-10-17T02:06:13;11.00;99.90
59469;DHT22;45277;52.768;18.262;2022-10-17T02:11:01;11.20;99.90
59469;DHT22;45277;52.768;18.262;2022-10-17T02:25:28;11.50;99.90
59469;DHT22;45277;52.768;18.262;2022-10-17T02:35:02;11.50;99.90
59469;DHT22;45277;52.768;18.262;2022-10-17T02:39:44;11.40;99.90
59469;DHT22;45277;52.768;18.262;2022-10-17T02:49:10;11.00;99.90
59469;DHT22;45277;52.768;18.262;2022-10-17T02:58:37;11.00;99.90
59469;DHT22;45277;52.768;18.262;2022-10-17T03:08:25;11.60;99.90
59469;DHT22;45277;52.768;18.262;2022-10-17T03:17:48;11.50;99.90
59469;DHT22;45277;52.768;18.262;2022-10-17T03:22:29;11.40;99.90
59469;DHT22;45277;52.768;18.262;2022-10-17T03:27:10;11.50;99.90
59469;DHT22;45277;52.768;18.262;2022-10-17T03:31:52;11.60;99.90
59469;DHT22;45277;52.768;18.262;2022-10-17T03:36:37;11.70;99.90
59469;DHT22;45277;52.768;18.262;2022-10-17T03:41:19;11.70;99.90
59469;DHT22;45277;52.768;18.262;2022-10-17T03:45:58;11.80;99.90
59469;DHT22;45277;52.768;18.262;2022-10-17T03:50:42;11.80;99.90
59469;DHT22;45277;52.768;18.262;2022-10-17T03:55:20;11.80;99.90
59469;DHT22;45277;52.768;18.262;2022-10-17T04:00:02;11.80;99.90
59469;DHT22;45277;52.768;18.262;2022-10-17T04:10:23;11.60;99.90
59469;DHT22;45277;52.768;18.262;2022-10-17T04:24:28;11.40;99.90
59469;DHT22;45277;52.768;18.262;2022-10-17T04:29:07;11.40;99.90
59469;DHT22;45277;52.768;18.262;2022-10-17T04:33:46;11.40;99.90
59469;DHT22;45277;52.768;18.262;2022-10-17T04:38:24;11.40;99.90
59469;DHT22;45277;52.768;18.262;2022-10-17T04:43:06;11.70;99.90
59469;DHT22;45277;52.768;18.262;2022-10-17T04:47:47;11.80;99.90
59469;DHT22;45277;52.768;18.262;2022-10-17T04:52:29;11.80;99.90
59469;DHT22;45277;52.768;18.262;2022-10-17T04:57:07;11.80;99.90
59469;DHT22;45277;52.768;18.262;2022-10-17T05:01:49;11.90;99.90
59469;DHT22;45277;52.768;18.262;2022-10-17T05:12:10;12.20;99.90
59469;DHT22;45277;52.768;18.262;2022-10-17T05:16:51;12.20;99.90
59469;DHT22;45277;52.768;18.262;2022-10-17T05:21:33;12.20;99.90
59469;DHT22;45277;52.768;18.262;2022-10-17T05:26:14;12.30;99.90
59469;DHT22;45277;52.768;18.262;2022-10-17T05:30:55;12.30;99.90
59469;DHT22;45277;52.768;18.262;2022-10-17T05:35:37;12.10;99.90
59469;DHT22;45277;52.768;18.262;2022-10-17T05:40:15;11.90;99.90
59469;DHT22;45277;52.768;18.262;2022-10-17T05:44:57;11.90;99.90
59469;DHT22;45277;52.768;18.262;2022-10-17T05:49:41;12.10;99.90
59469;DHT22;45277;52.768;18.262;2022-10-17T05:54:20;12.20;99.90
59469;DHT22;45277;52.768;18.262;2022-10-17T05:59:01;12.20;99.90
59469;DHT22;45277;52.768;18.262;2022-10-17T06:03:39;12.20;99.90
59469;DHT22;45277;52.768;18.262;2022-10-17T06:14:01;12.50;99.90
59469;DHT22;45277;52.768;18.262;2022-10-17T06:18:46;12.70;99.90
59469;DHT22;45277;52.768;18.262;2022-10-17T06:23:24;12.80;99.90
59469;DHT22;45277;52.768;18.262;2022-10-17T06:28:13;12.90;99.90
59469;DHT22;45277;52.768;18.262;2022-10-17T06:32:51;13.10;99.90
59469;DHT22;45277;52.768;18.262;2022-10-17T06:42:11;13.30;99.90
59469;DHT22;45277;52.768;18.262;2022-10-17T06:46:53;13.50;99.90
59469;DHT22;45277;52.768;18.262;2022-10-17T06:56:15;13.80;99.90
59469;DHT22;45277;52.768;18.262;2022-10-17T07:00:57;13.90;99.90
59469;DHT22;45277;52.768;18.262;2022-10-17T07:05:40;14.30;99.90
59469;DHT22;45277;52.768;18.262;2022-10-17T07:16:02;14.50;99.90
59469;DHT22;45277;52.768;18.262;2022-10-17T07:17:33;14.50;99.90
59469;DHT22;45277;52.768;18.262;2022-10-17T07:22:14;14.70;99.90
59469;DHT22;45277;52.768;18.262;2022-10-17T07:26:58;14.80;99.90
59469;DHT22;45277;52.768;18.262;2022-10-17T07:31:37;14.80;99.90
59469;DHT22;45277;52.768;18.262;2022-10-17T07:41:01;15.00;99.90
59469;DHT22;45277;52.768;18.262;2022-10-17T07:45:46;15.20;99.90
59469;DHT22;45277;52.768;18.262;2022-10-17T07:50:24;15.40;99.90
59469;DHT22;45277;52.768;18.262;2022-10-17T07:59:49;15.70;99.90
59469;DHT22;45277;52.768;18.262;2022-10-17T08:10:42;16.30;99.90
59469;DHT22;45277;52.768;18.262;2022-10-17T08:19:59;16.40;99.90
59469;DHT22;45277;52.768;18.262;2022-10-17T08:24:40;16.60;99.90
59469;DHT22;45277;52.768;18.262;2022-10-17T08:34:08;16.90;99.90
59469;DHT22;45277;52.768;18.262;2022-10-17T08:47:08;17.40;99.90
59469;DHT22;45277;52.768;18.262;2022-10-17T08:51:52;17.70;99.90
59469;DHT22;45277;52.768;18.262;2022-10-17T08:58:32;18.30;99.90
59469;DHT22;45277;52.768;18.262;2022-10-17T09:03:21;18.20;99.90
59469;DHT22;45277;52.768;18.262;2022-10-17T09:08:03;18.10;99.90
59469;DHT22;45277;52.768;18.262;2022-10-17T09:18:19;18.20;99.90
59469;DHT22;45277;52.768;18.262;2022-10-17T09:24:58;18.40;99.90
59469;DHT22;45277;52.768;18.262;2022-10-17T09:29:40;18.90;99.90
59469;DHT22;45277;52.768;18.262;2022-10-17T09:34:30;19.40;99.90
59469;DHT22;45277;52.768;18.262;2022-10-17T09:39:13;19.40;99.90
59469;DHT22;45277;52.768;18.262;2022-10-17T09:48:46;19.40;99.90
59469;DHT22;45277;52.768;18.262;2022-10-17T09:53:26;19.80;99.90
59469;DHT22;45277;52.768;18.262;2022-10-17T09:58:10;19.90;99.90
59469;DHT22;45277;52.768;18.262;2022-10-17T10:03:06;20.20;99.90
59469;DHT22;45277;52.768;18.262;2022-10-17T10:09:45;20.50;99.90
59469;DHT22;45277;52.768;18.262;2022-10-17T10:19:52;20.70;99.90
59469;DHT22;45277;52.768;18.262;2022-10-17T10:24:34;20.90;99.90
59469;DHT22;45277;52.768;18.262;2022-10-17T10:29:25;21.60;99.90
59469;DHT22;45277;52.768;18.262;2022-10-17T10:38:52;23.00;98.40
59469;DHT22;45277;52.768;18.262;2022-10-17T10:43:39;23.30;87.20
59469;DHT22;45277;52.768;18.262;2022-10-17T10:57:56;26.10;26.40
59469;DHT22;45277;52.768;18.262;2022-10-17T11:07:38;25.70;29.10
59469;DHT22;45277;52.768;18.262;2022-10-17T11:12:24;25.30;30.50
59469;DHT22;45277;52.768;18.262;2022-10-17T11:27:27;25.20;28.20
59469;DHT22;45277;52.768;18.262;2022-10-17T11:34:26;26.20;18.60
59469;DHT22;45277;52.768;18.262;2022-10-17T11:39:15;25.80;23.30
59469;DHT22;45277;52.768;18.262;2022-10-17T11:44:14;26.80;14.70
59469;DHT22;45277;52.768;18.262;2022-10-17T11:58:36;26.80;11.80
59469;DHT22;45277;52.768;18.262;2022-10-17T12:08:04;28.40;5.60
59469;DHT22;45277;52.768;18.262;2022-10-17T12:12:47;27.80;6.50
59469;DHT22;45277;52.768;18.262;2022-10-17T12:23:32;26.30;10.80
59469;DHT22;45277;52.768;18.262;2022-10-17T12:33:14;26.40;13.20
59469;DHT22;45277;52.768;18.262;2022-10-17T12:38:26;26.90;11.10
59469;DHT22;45277;52.768;18.262;2022-10-17T12:43:53;27.60;7.40
59469;DHT22;45277;52.768;18.262;2022-10-17T12:44:52;27.80;7.70
59469;DHT22;45277;52.768;18.262;2022-10-17T12:49:44;28.30;6.10
59469;DHT22;45277;52.768;18.262;2022-10-17T12:54:26;28.10;5.60
59469;DHT22;45277;52.768;18.262;2022-10-17T13:03:50;28.80;4.20
59469;DHT22;45277;52.768;18.262;2022-10-17T13:08:37;28.40;5.40
59469;DHT22;45277;52.768;18.262;2022-10-17T13:13:19;27.50;7.00
59469;DHT22;45277;52.768;18.262;2022-10-17T13:24:21;27.30;8.40
59469;DHT22;45277;52.768;18.262;2022-10-17T13:33:41;28.10;7.40
59469;DHT22;45277;52.768;18.262;2022-10-17T13:38:21;28.40;6.00
59469;DHT22;45277;52.768;18.262;2022-10-17T13:43:12;28.70;5.90
59469;DHT22;45277;52.768;18.262;2022-10-17T13:52:42;28.60;4.60
59469;DHT22;45277;52.768;18.262;2022-10-17T13:57:28;27.80;6.20
59469;DHT22;45277;52.768;18.262;2022-10-17T14:11:40;27.90;7.00
59469;DHT22;45277;52.768;18.262;2022-10-17T14:16:26;28.20;7.40
59469;DHT22;45277;52.768;18.262;2022-10-17T14:22:22;29.60;3.70
59469;DHT22;45277;52.768;18.262;2022-10-17T14:27:23;30.10;2.10
59469;DHT22;45277;52.768;18.262;2022-10-17T14:32:04;30.10;1.40
59469;DHT22;45277;52.768;18.262;2022-10-17T14:36:50;29.60;2.20
59469;DHT22;45277;52.768;18.262;2022-10-17T14:41:33;28.50;3.90
59469;DHT22;45277;52.768;18.262;2022-10-17T14:51:08;25.90;14.90
59469;DHT22;45277;52.768;18.262;2022-10-17T14:55:54;24.60;41.10
59469;DHT22;45277;52.768;18.262;2022-10-17T15:00:40;23.60;63.20
59469;DHT22;45277;52.768;18.262;2022-10-17T15:05:19;22.80;89.90
59469;DHT22;45277;52.768;18.262;2022-10-17T15:10:03;22.30;98.30
59469;DHT22;45277;52.768;18.262;2022-10-17T15:14:45;21.80;99.90
59469;DHT22;45277;52.768;18.262;2022-10-17T15:19:32;21.60;99.90
59469;DHT22;45277;52.768;18.262;2022-10-17T15:25:12;21.00;99.90
59469;DHT22;45277;52.768;18.262;2022-10-17T15:29:57;20.70;99.90
59469;DHT22;45277;52.768;18.262;2022-10-17T15:34:38;20.30;99.90
59469;DHT22;45277;52.768;18.262;2022-10-17T15:39:17;19.80;99.90
59469;DHT22;45277;52.768;18.262;2022-10-17T15:44:07;19.50;99.90
59469;DHT22;45277;52.768;18.262;2022-10-17T15:53:31;19.00;99.90
59469;DHT22;45277;52.768;18.262;2022-10-17T15:58:13;18.90;99.90
59469;DHT22;45277;52.768;18.262;2022-10-17T16:02:59;18.70;99.90
59469;DHT22;45277;52.768;18.262;2022-10-17T16:12:27;18.30;99.90
59469;DHT22;45277;52.768;18.262;2022-10-17T16:22:00;18.00;99.90
59469;DHT22;45277;52.768;18.262;2022-10-17T16:32:09;17.70;99.90
59469;DHT22;45277;52.768;18.262;2022-10-17T16:36:53;17.50;99.90
59469;DHT22;45277;52.768;18.262;2022-10-17T16:41:35;17.50;99.90
59469;DHT22;45277;52.768;18.262;2022-10-17T16:46:20;17.40;99.90
59469;DHT22;45277;52.768;18.262;2022-10-17T16:51:02;17.30;99.90
59469;DHT22;45277;52.768;18.262;2022-10-17T17:00:25;17.10;99.90
59469;DHT22;45277;52.768;18.262;2022-10-17T17:05:06;17.10;99.90
59469;DHT22;45277;52.768;18.262;2022-10-17T17:14:35;17.00;99.90
59469;DHT22;45277;52.768;18.262;2022-10-17T17:19:18;17.10;99.90
59469;DHT22;45277;52.768;18.262;2022-10-17T17:24:07;17.00;99.90
59469;DHT22;45277;52.768;18.262;2022-10-17T17:34:15;17.00;99.90
59469;DHT22;45277;52.768;18.262;2022-10-17T17:38:56;16.90;99.90
59469;DHT22;45277;52.768;18.262;2022-10-17T17:43:37;16.70;99.90
59469;DHT22;45277;52.768;18.262;2022-10-17T17:48:16;16.60;99.90
59469;DHT22;45277;52.768;18.262;2022-10-17T17:53:02;16.50;99.90
59469;DHT22;45277;52.768;18.262;2022-10-17T17:57:45;16.40;99.90
59469;DHT22;45277;52.768;18.262;2022-10-17T18:02:32;16.30;99.90
59469;DHT22;45277;52.768;18.262;2022-10-17T18:07:14;16.20;99.90
59469;DHT22;45277;52.768;18.262;2022-10-17T18:16:35;16.00;99.90
59469;DHT22;45277;52.768;18.262;2022-10-17T18:21:20;15.90;99.90
59469;DHT22;45277;52.768;18.262;2022-10-17T18:25:59;15.80;99.90
59469;DHT22;45277;52.768;18.262;2022-10-17T18:27:32;15.70;99.90
59469;DHT22;45277;52.768;18.262;2022-10-17T18:29:06;15.60;99.90
59469;DHT22;45277;52.768;18.262;2022-10-17T18:33:45;15.50;99.90
59469;DHT22;45277;52.768;18.262;2022-10-17T18:38:31;15.40;99.90
59469;DHT22;45277;52.768;18.262;2022-10-17T18:48:01;15.20;99.90
59469;DHT22;45277;52.768;18.262;2022-10-17T18:52:43;15.20;99.90
59469;DHT22;45277;52.768;18.262;2022-10-17T18:57:26;15.10;99.90
59469;DHT22;45277;52.768;18.262;2022-10-17T19:02:09;15.10;99.90
59469;DHT22;45277;52.768;18.262;2022-10-17T19:11:37;15.10;99.90
59469;DHT22;45277;52.768;18.262;2022-10-17T19:16:22;15.30;99.90
59469;DHT22;45277;52.768;18.262;2022-10-17T19:25:46;15.40;99.90
59469;DHT22;45277;52.768;18.262;2022-10-17T19:35:56;15.60;99.90
59469;DHT22;45277;52.768;18.262;2022-10-17T19:40:39;15.70;99.90
59469;DHT22;45277;52.768;18.262;2022-10-17T19:45:23;15.70;99.90
59469;DHT22;45277;52.768;18.262;2022-10-17T19:50:05;15.50;99.90
59469;DHT22;45277;52.768;18.262;2022-10-17T19:54:45;15.40;99.90
59469;DHT22;45277;52.768;18.262;2022-10-17T19:59:30;15.30;99.90
59469;DHT22;45277;52.768;18.262;2022-10-17T20:04:15;15.30;99.90
59469;DHT22;45277;52.768;18.262;2022-10-17T20:08:53;15.20;99.90
59469;DHT22;45277;52.768;18.262;2022-10-17T20:13:39;15.00;99.90
59469;DHT22;45277;52.768;18.262;2022-10-17T20:18:21;14.80;99.90
59469;DHT22;45277;52.768;18.262;2022-10-17T20:23:02;14.80;99.90
59469;DHT22;45277;52.768;18.262;2022-10-17T20:27:47;14.80;99.90
59469;DHT22;45277;52.768;18.262;2022-10-17T20:37:54;14.30;99.90
59469;DHT22;45277;52.768;18.262;2022-10-17T20:42:38;14.30;99.90
59469;DHT22;45277;52.768;18.262;2022-10-17T20:47:20;14.30;99.90
59469;DHT22;45277;52.768;18.262;2022-10-17T20:56:40;14.20;99.90
59469;DHT22;45277;52.768;18.262;2022-10-17T21:01:22;14.10;99.90
59469;DHT22;45277;52.768;18.262;2022-10-17T21:06:06;14.00;99.90
59469;DHT22;45277;52.768;18.262;2022-10-17T21:10:45;14.00;99.90
59469;DHT22;45277;52.768;18.262;2022-10-17T21:15:24;14.00;99.90
59469;DHT22;45277;52.768;18.262;2022-10-17T21:20:02;14.00;99.90
59469;DHT22;45277;52.768;18.262;2022-10-17T21:24:43;14.10;99.90
59469;DHT22;45277;52.768;18.262;2022-10-17T21:29:26;14.40;99.90
59469;DHT22;45277;52.768;18.262;2022-10-17T21:39:46;14.60;99.90
59469;DHT22;45277;52.768;18.262;2022-10-17T21:44:28;14.60;99.90
59469;DHT22;45277;52.768;18.262;2022-10-17T21:49:10;14.50;99.90
59469;DHT22;45277;52.768;18.262;2022-10-17T21:53:53;14.50;99.90
59469;DHT22;45277;52.768;18.262;2022-10-17T21:58:34;14.30;99.90
59469;DHT22;45277;52.768;18.262;2022-10-17T22:03:18;14.40;99.90
59469;DHT22;45277;52.768;18.262;2022-10-17T22:08:00;14.50;99.90
59469;DHT22;45277;52.768;18.262;2022-10-17T22:12:42;14.50;99.90
59469;DHT22;45277;52.768;18.262;2022-10-17T22:17:20;14.60;99.90
59469;DHT22;45277;52.768;18.262;2022-10-17T22:22:04;14.40;99.90
59469;DHT22;45277;52.768;18.262;2022-10-17T22:26:42;14.20;99.90
59469;DHT22;45277;52.768;18.262;2022-10-17T22:31:27;14.10;99.90
59469;DHT22;45277;52.768;18.262;2022-10-17T22:41:34;13.50;99.90
59469;DHT22;45277;52.768;18.262;2022-10-17T22:46:13;13.50;99.90
59469;DHT22;45277;52.768;18.262;2022-10-17T22:50:54;13.60;99.90
59469;DHT22;45277;52.768;18.262;2022-10-17T22:55:36;13.60;99.90
59469;DHT22;45277;52.768;18.262;2022-10-17T23:00:14;13.60;99.90
59469;DHT22;45277;52.768;18.262;2022-10-17T23:05:01;13.60;99.90
59469;DHT22;45277;52.768;18.262;2022-10-17T23:09:42;13.50;99.90
59469;DHT22;45277;52.768;18.262;2022-10-17T23:14:26;13.50;99.90
59469;DHT22;45277;52.768;18.262;2022-10-17T23:19:04;13.50;99.90
59469;DHT22;45277;52.768;18.262;2022-10-17T23:33:02;13.60;99.90
59469;DHT22;45277;52.768;18.262;2022-10-17T23:43:23;13.50;99.90
59469;DHT22;45277;52.768;18.262;2022-10-17T23:52:51;13.60;99.90
59469;DHT22;45277;52.768;18.262;2022-10-17T23:57:32;13.80;99.90
